sensor_id;sensor_type;location;lat;lon;timestamp;P1;durP1;ratioP1;P2;durP2;ratioP2
41677;SDS011;27364;49.026;8.712;2022-12-18T00:00:47;59.40;;;28.55;;
41677;SDS011;27364;49.026;8.712;2022-12-18T00:03:14;56.90;;;26.35;;
41677;SDS011;27364;49.026;8.712;2022-12-18T00:05:46;59.17;;;29.02;;
41677;SDS011;27364;49.026;8.712;2022-12-18T00:08:16;54.03;;;27.70;;
41677;SDS011;27364;49.026;8.712;2022-12-18T00:10:42;63.93;;;30.23;;
41677;SDS011;27364;49.026;8.712;2022-12-18T00:13:08;63.25;;;29.58;;
41677;SDS011;27364;49.026;8.712;2022-12-18T00:15:34;58.93;;;30.07;;
41677;SDS011;27364;49.026;8.712;2022-12-18T00:18:01;64.60;;;32.10;;
41677;SDS011;27364;49.026;8.712;2022-12-18T00:20:27;58.35;;;29.73;;
41677;SDS011;27364;49.026;8.712;2022-12-18T00:22:53;60.30;;;31.58;;
41677;SDS011;27364;49.026;8.712;2022-12-18T00:25:20;59.13;;;29.98;;
41677;SDS011;27364;49.026;8.712;2022-12-18T00:27:46;60.88;;;30.67;;
41677;SDS011;27364;49.026;8.712;2022-12-18T00:30:11;57.63;;;30.57;;
41677;SDS011;27364;49.026;8.712;2022-12-18T00:32:37;67.00;;;32.80;;
41677;SDS011;27364;49.026;8.712;2022-12-18T00:35:03;54.40;;;28.52;;
41677;SDS011;27364;49.026;8.712;2022-12-18T00:37:29;57.80;;;27.75;;
41677;SDS011;27364;49.026;8.712;2022-12-18T00:39:55;53.87;;;26.40;;
41677;SDS011;27364;49.026;8.712;2022-12-18T00:42:20;62.03;;;29.70;;
41677;SDS011;27364;49.026;8.712;2022-12-18T00:45:05;57.92;;;28.13;;
41677;SDS011;27364;49.026;8.712;2022-12-18T00:47:30;58.28;;;27.58;;
41677;SDS011;27364;49.026;8.712;2022-12-18T00:49:56;57.30;;;28.73;;
41677;SDS011;27364;49.026;8.712;2022-12-18T00:52:22;61.47;;;30.88;;
41677;SDS011;27364;49.026;8.712;2022-12-18T00:54:47;54.10;;;26.38;;
41677;SDS011;27364;49.026;8.712;2022-12-18T00:57:13;63.17;;;31.10;;
41677;SDS011;27364;49.026;8.712;2022-12-18T00:59:38;59.40;;;30.48;;
41677;SDS011;27364;49.026;8.712;2022-12-18T01:02:04;60.50;;;31.57;;
41677;SDS011;27364;49.026;8.712;2022-12-18T01:04:31;58.42;;;29.90;;
41677;SDS011;27364;49.026;8.712;2022-12-18T01:06:57;60.15;;;30.30;;
41677;SDS011;27364;49.026;8.712;2022-12-18T01:09:23;56.17;;;27.15;;
41677;SDS011;27364;49.026;8.712;2022-12-18T01:11:48;61.35;;;29.20;;
41677;SDS011;27364;49.026;8.712;2022-12-18T01:14:14;69.07;;;31.70;;
41677;SDS011;27364;49.026;8.712;2022-12-18T01:16:40;57.47;;;27.38;;
41677;SDS011;27364;49.026;8.712;2022-12-18T01:19:05;68.40;;;29.20;;
41677;SDS011;27364;49.026;8.712;2022-12-18T01:21:31;66.22;;;33.67;;
41677;SDS011;27364;49.026;8.712;2022-12-18T01:23:56;68.53;;;32.30;;
41677;SDS011;27364;49.026;8.712;2022-12-18T01:26:22;66.97;;;31.25;;
41677;SDS011;27364;49.026;8.712;2022-12-18T01:28:49;64.05;;;31.13;;
41677;SDS011;27364;49.026;8.712;2022-12-18T01:31:19;60.20;;;29.75;;
41677;SDS011;27364;49.026;8.712;2022-12-18T01:33:49;60.13;;;29.17;;
41677;SDS011;27364;49.026;8.712;2022-12-18T01:36:20;64.97;;;30.30;;
41677;SDS011;27364;49.026;8.712;2022-12-18T01:38:53;65.43;;;32.17;;
41677;SDS011;27364;49.026;8.712;2022-12-18T01:41:21;69.25;;;32.33;;
41677;SDS011;27364;49.026;8.712;2022-12-18T01:43:56;60.90;;;29.45;;
41677;SDS011;27364;49.026;8.712;2022-12-18T01:46:24;58.60;;;29.60;;
41677;SDS011;27364;49.026;8.712;2022-12-18T01:48:56;61.08;;;29.88;;
41677;SDS011;27364;49.026;8.712;2022-12-18T01:51:22;59.40;;;29.60;;
41677;SDS011;27364;49.026;8.712;2022-12-18T01:53:48;58.20;;;29.95;;
41677;SDS011;27364;49.026;8.712;2022-12-18T01:56:15;60.85;;;30.48;;
41677;SDS011;27364;49.026;8.712;2022-12-18T02:01:15;61.40;;;28.63;;
41677;SDS011;27364;49.026;8.712;2022-12-18T02:03:41;62.85;;;29.58;;
41677;SDS011;27364;49.026;8.712;2022-12-18T02:09:09;61.25;;;29.50;;
41677;SDS011;27364;49.026;8.712;2022-12-18T02:11:50;65.53;;;30.92;;
41677;SDS011;27364;49.026;8.712;2022-12-18T02:14:40;60.80;;;31.05;;
41677;SDS011;27364;49.026;8.712;2022-12-18T02:17:39;61.47;;;28.92;;
41677;SDS011;27364;49.026;8.712;2022-12-18T02:20:18;59.17;;;29.17;;
41677;SDS011;27364;49.026;8.712;2022-12-18T02:23:24;53.00;;;26.83;;
41677;SDS011;27364;49.026;8.712;2022-12-18T02:28:45;57.97;;;28.45;;
41677;SDS011;27364;49.026;8.712;2022-12-18T02:31:22;54.75;;;27.35;;
41677;SDS011;27364;49.026;8.712;2022-12-18T02:33:51;60.22;;;26.55;;
41677;SDS011;27364;49.026;8.712;2022-12-18T02:36:20;57.70;;;27.58;;
41677;SDS011;27364;49.026;8.712;2022-12-18T02:38:47;57.00;;;27.85;;
41677;SDS011;27364;49.026;8.712;2022-12-18T02:41:15;39.83;;;19.43;;
41677;SDS011;27364;49.026;8.712;2022-12-18T02:43:45;59.53;;;27.48;;
41677;SDS011;27364;49.026;8.712;2022-12-18T02:46:22;53.90;;;26.25;;
41677;SDS011;27364;49.026;8.712;2022-12-18T02:48:52;52.55;;;25.63;;
41677;SDS011;27364;49.026;8.712;2022-12-18T02:51:29;58.15;;;28.48;;
41677;SDS011;27364;49.026;8.712;2022-12-18T02:54:13;55.22;;;27.23;;
41677;SDS011;27364;49.026;8.712;2022-12-18T02:57:03;67.55;;;30.67;;
41677;SDS011;27364;49.026;8.712;2022-12-18T02:59:45;60.20;;;28.30;;
41677;SDS011;27364;49.026;8.712;2022-12-18T03:02:30;50.47;;;24.10;;
41677;SDS011;27364;49.026;8.712;2022-12-18T03:05:19;58.60;;;25.88;;
41677;SDS011;27364;49.026;8.712;2022-12-18T03:10:38;52.08;;;25.83;;
41677;SDS011;27364;49.026;8.712;2022-12-18T03:13:12;51.53;;;24.10;;
41677;SDS011;27364;49.026;8.712;2022-12-18T03:15:42;49.50;;;23.17;;
41677;SDS011;27364;49.026;8.712;2022-12-18T03:18:16;57.60;;;28.27;;
41677;SDS011;27364;49.026;8.712;2022-12-18T03:20:46;53.65;;;25.98;;
41677;SDS011;27364;49.026;8.712;2022-12-18T03:25:43;59.33;;;25.25;;
41677;SDS011;27364;49.026;8.712;2022-12-18T03:28:12;50.22;;;24.70;;
41677;SDS011;27364;49.026;8.712;2022-12-18T03:30:41;54.57;;;24.90;;
41677;SDS011;27364;49.026;8.712;2022-12-18T03:33:12;46.03;;;24.33;;
41677;SDS011;27364;49.026;8.712;2022-12-18T03:35:42;53.65;;;27.13;;
41677;SDS011;27364;49.026;8.712;2022-12-18T03:38:09;54.63;;;27.97;;
41677;SDS011;27364;49.026;8.712;2022-12-18T03:46:30;54.80;;;25.77;;
41677;SDS011;27364;49.026;8.712;2022-12-18T03:49:10;51.05;;;25.00;;
41677;SDS011;27364;49.026;8.712;2022-12-18T03:51:47;56.50;;;28.75;;
41677;SDS011;27364;49.026;8.712;2022-12-18T03:54:17;55.60;;;26.30;;
41677;SDS011;27364;49.026;8.712;2022-12-18T03:56:44;53.67;;;27.55;;
41677;SDS011;27364;49.026;8.712;2022-12-18T03:59:19;55.23;;;25.17;;
41677;SDS011;27364;49.026;8.712;2022-12-18T04:01:47;56.97;;;26.53;;
41677;SDS011;27364;49.026;8.712;2022-12-18T04:04:16;57.83;;;27.10;;
41677;SDS011;27364;49.026;8.712;2022-12-18T04:06:43;58.10;;;27.90;;
41677;SDS011;27364;49.026;8.712;2022-12-18T04:09:12;61.37;;;28.90;;
41677;SDS011;27364;49.026;8.712;2022-12-18T04:11:39;59.40;;;29.35;;
41677;SDS011;27364;49.026;8.712;2022-12-18T04:14:07;56.65;;;29.95;;
41677;SDS011;27364;49.026;8.712;2022-12-18T04:16:32;51.70;;;27.17;;
41677;SDS011;27364;49.026;8.712;2022-12-18T04:18:58;61.57;;;28.87;;
41677;SDS011;27364;49.026;8.712;2022-12-18T04:21:24;57.58;;;26.10;;
41677;SDS011;27364;49.026;8.712;2022-12-18T04:23:49;51.83;;;24.75;;
41677;SDS011;27364;49.026;8.712;2022-12-18T04:26:15;52.33;;;23.60;;
41677;SDS011;27364;49.026;8.712;2022-12-18T04:28:40;49.57;;;24.43;;
41677;SDS011;27364;49.026;8.712;2022-12-18T04:31:06;51.28;;;25.08;;
41677;SDS011;27364;49.026;8.712;2022-12-18T04:33:31;56.60;;;26.80;;
41677;SDS011;27364;49.026;8.712;2022-12-18T04:35:57;56.37;;;28.63;;
41677;SDS011;27364;49.026;8.712;2022-12-18T04:38:23;57.40;;;28.73;;
41677;SDS011;27364;49.026;8.712;2022-12-18T04:40:48;56.63;;;28.40;;
41677;SDS011;27364;49.026;8.712;2022-12-18T04:43:14;56.33;;;26.48;;
41677;SDS011;27364;49.026;8.712;2022-12-18T04:45:39;54.53;;;25.40;;
41677;SDS011;27364;49.026;8.712;2022-12-18T04:48:05;51.80;;;26.37;;
41677;SDS011;27364;49.026;8.712;2022-12-18T04:50:31;53.25;;;27.45;;
41677;SDS011;27364;49.026;8.712;2022-12-18T04:52:56;49.67;;;24.33;;
41677;SDS011;27364;49.026;8.712;2022-12-18T04:55:23;51.20;;;24.98;;
41677;SDS011;27364;49.026;8.712;2022-12-18T04:57:49;59.95;;;28.55;;
41677;SDS011;27364;49.026;8.712;2022-12-18T05:00:14;59.70;;;29.30;;
41677;SDS011;27364;49.026;8.712;2022-12-18T05:02:40;52.33;;;26.27;;
41677;SDS011;27364;49.026;8.712;2022-12-18T05:05:06;54.97;;;28.93;;
41677;SDS011;27364;49.026;8.712;2022-12-18T05:07:32;53.05;;;27.95;;
41677;SDS011;27364;49.026;8.712;2022-12-18T05:09:57;54.85;;;29.27;;
41677;SDS011;27364;49.026;8.712;2022-12-18T05:12:23;51.92;;;24.77;;
41677;SDS011;27364;49.026;8.712;2022-12-18T05:14:48;50.28;;;23.33;;
41677;SDS011;27364;49.026;8.712;2022-12-18T05:17:14;48.30;;;23.52;;
41677;SDS011;27364;49.026;8.712;2022-12-18T05:19:39;45.13;;;22.70;;
41677;SDS011;27364;49.026;8.712;2022-12-18T05:22:05;50.08;;;25.67;;
41677;SDS011;27364;49.026;8.712;2022-12-18T05:24:30;55.00;;;27.50;;
41677;SDS011;27364;49.026;8.712;2022-12-18T05:26:56;50.83;;;27.52;;
41677;SDS011;27364;49.026;8.712;2022-12-18T05:29:22;49.20;;;26.35;;
41677;SDS011;27364;49.026;8.712;2022-12-18T05:31:47;53.28;;;27.80;;
41677;SDS011;27364;49.026;8.712;2022-12-18T05:34:14;49.28;;;26.50;;
41677;SDS011;27364;49.026;8.712;2022-12-18T05:36:39;50.00;;;26.95;;
41677;SDS011;27364;49.026;8.712;2022-12-18T05:39:05;48.27;;;25.17;;
41677;SDS011;27364;49.026;8.712;2022-12-18T05:41:31;48.07;;;24.70;;
41677;SDS011;27364;49.026;8.712;2022-12-18T05:43:57;51.25;;;26.98;;
41677;SDS011;27364;49.026;8.712;2022-12-18T05:46:23;47.17;;;23.33;;
41677;SDS011;27364;49.026;8.712;2022-12-18T05:48:49;49.60;;;25.75;;
41677;SDS011;27364;49.026;8.712;2022-12-18T05:51:16;44.88;;;23.10;;
41677;SDS011;27364;49.026;8.712;2022-12-18T05:53:43;41.47;;;20.80;;
41677;SDS011;27364;49.026;8.712;2022-12-18T05:56:12;44.28;;;24.42;;
41677;SDS011;27364;49.026;8.712;2022-12-18T05:58:39;45.13;;;22.92;;
41677;SDS011;27364;49.026;8.712;2022-12-18T06:01:06;40.10;;;20.13;;
41677;SDS011;27364;49.026;8.712;2022-12-18T06:03:32;44.08;;;22.50;;
41677;SDS011;27364;49.026;8.712;2022-12-18T06:05:58;39.57;;;20.37;;
41677;SDS011;27364;49.026;8.712;2022-12-18T06:08:23;39.22;;;18.27;;
41677;SDS011;27364;49.026;8.712;2022-12-18T06:10:50;40.57;;;19.47;;
41677;SDS011;27364;49.026;8.712;2022-12-18T06:15:43;48.73;;;22.93;;
41677;SDS011;27364;49.026;8.712;2022-12-18T06:18:09;46.13;;;20.43;;
41677;SDS011;27364;49.026;8.712;2022-12-18T06:20:34;39.90;;;19.23;;
41677;SDS011;27364;49.026;8.712;2022-12-18T06:23:01;47.88;;;23.75;;
41677;SDS011;27364;49.026;8.712;2022-12-18T06:25:27;43.93;;;21.30;;
41677;SDS011;27364;49.026;8.712;2022-12-18T06:27:53;42.97;;;22.10;;
41677;SDS011;27364;49.026;8.712;2022-12-18T06:30:19;46.80;;;23.93;;
41677;SDS011;27364;49.026;8.712;2022-12-18T06:32:44;50.80;;;24.90;;
41677;SDS011;27364;49.026;8.712;2022-12-18T06:35:10;43.43;;;21.93;;
41677;SDS011;27364;49.026;8.712;2022-12-18T06:37:35;41.07;;;20.20;;
41677;SDS011;27364;49.026;8.712;2022-12-18T06:40:06;44.53;;;21.73;;
41677;SDS011;27364;49.026;8.712;2022-12-18T06:42:32;43.27;;;20.60;;
41677;SDS011;27364;49.026;8.712;2022-12-18T06:44:58;39.90;;;18.87;;
41677;SDS011;27364;49.026;8.712;2022-12-18T06:47:23;41.17;;;20.17;;
41677;SDS011;27364;49.026;8.712;2022-12-18T06:49:49;46.30;;;22.87;;
41677;SDS011;27364;49.026;8.712;2022-12-18T06:52:14;42.47;;;19.27;;
41677;SDS011;27364;49.026;8.712;2022-12-18T06:54:40;40.07;;;18.87;;
41677;SDS011;27364;49.026;8.712;2022-12-18T06:57:05;37.67;;;18.20;;
41677;SDS011;27364;49.026;8.712;2022-12-18T06:59:31;41.50;;;19.27;;
41677;SDS011;27364;49.026;8.712;2022-12-18T07:01:56;40.57;;;19.07;;
41677;SDS011;27364;49.026;8.712;2022-12-18T07:04:26;42.33;;;18.30;;
41677;SDS011;27364;49.026;8.712;2022-12-18T07:06:55;37.90;;;18.57;;
41677;SDS011;27364;49.026;8.712;2022-12-18T07:09:22;41.40;;;18.40;;
41677;SDS011;27364;49.026;8.712;2022-12-18T07:11:47;38.50;;;18.03;;
41677;SDS011;27364;49.026;8.712;2022-12-18T07:14:13;38.23;;;19.60;;
41677;SDS011;27364;49.026;8.712;2022-12-18T07:16:38;44.63;;;21.30;;
41677;SDS011;27364;49.026;8.712;2022-12-18T07:19:04;46.70;;;21.07;;
41677;SDS011;27364;49.026;8.712;2022-12-18T07:21:29;49.90;;;20.77;;
41677;SDS011;27364;49.026;8.712;2022-12-18T07:23:55;44.77;;;19.70;;
41677;SDS011;27364;49.026;8.712;2022-12-18T07:26:21;47.03;;;19.07;;
41677;SDS011;27364;49.026;8.712;2022-12-18T07:28:47;43.13;;;21.70;;
41677;SDS011;27364;49.026;8.712;2022-12-18T07:31:17;43.83;;;20.13;;
41677;SDS011;27364;49.026;8.712;2022-12-18T07:33:45;43.17;;;21.17;;
41677;SDS011;27364;49.026;8.712;2022-12-18T07:36:11;47.47;;;22.30;;
41677;SDS011;27364;49.026;8.712;2022-12-18T07:38:37;46.40;;;20.73;;
41677;SDS011;27364;49.026;8.712;2022-12-18T07:41:06;52.80;;;23.83;;
41677;SDS011;27364;49.026;8.712;2022-12-18T07:43:33;46.10;;;23.93;;
41677;SDS011;27364;49.026;8.712;2022-12-18T07:46:00;42.60;;;21.50;;
41677;SDS011;27364;49.026;8.712;2022-12-18T07:48:25;45.33;;;22.33;;
41677;SDS011;27364;49.026;8.712;2022-12-18T07:50:52;50.83;;;23.07;;
41677;SDS011;27364;49.026;8.712;2022-12-18T07:53:17;48.10;;;23.83;;
41677;SDS011;27364;49.026;8.712;2022-12-18T07:55:43;54.60;;;25.33;;
41677;SDS011;27364;49.026;8.712;2022-12-18T07:58:08;47.93;;;25.93;;
41677;SDS011;27364;49.026;8.712;2022-12-18T08:00:34;50.87;;;24.93;;
41677;SDS011;27364;49.026;8.712;2022-12-18T08:03:00;48.93;;;24.43;;
41677;SDS011;27364;49.026;8.712;2022-12-18T08:05:26;52.13;;;24.77;;
41677;SDS011;27364;49.026;8.712;2022-12-18T08:07:52;47.63;;;23.13;;
41677;SDS011;27364;49.026;8.712;2022-12-18T08:10:18;50.60;;;23.80;;
41677;SDS011;27364;49.026;8.712;2022-12-18T08:12:43;47.73;;;23.67;;
41677;SDS011;27364;49.026;8.712;2022-12-18T08:15:09;55.00;;;25.90;;
41677;SDS011;27364;49.026;8.712;2022-12-18T08:17:35;49.33;;;24.70;;
41677;SDS011;27364;49.026;8.712;2022-12-18T08:20:01;53.60;;;27.30;;
41677;SDS011;27364;49.026;8.712;2022-12-18T08:22:26;63.63;;;30.47;;
41677;SDS011;27364;49.026;8.712;2022-12-18T08:24:52;55.30;;;26.87;;
41677;SDS011;27364;49.026;8.712;2022-12-18T08:27:17;52.07;;;27.53;;
41677;SDS011;27364;49.026;8.712;2022-12-18T08:29:43;52.37;;;26.37;;
41677;SDS011;27364;49.026;8.712;2022-12-18T08:32:09;47.07;;;23.43;;
41677;SDS011;27364;49.026;8.712;2022-12-18T08:34:34;48.28;;;24.13;;
41677;SDS011;27364;49.026;8.712;2022-12-18T08:37:00;47.58;;;22.65;;
41677;SDS011;27364;49.026;8.712;2022-12-18T08:39:25;42.93;;;22.33;;
41677;SDS011;27364;49.026;8.712;2022-12-18T08:41:51;46.78;;;24.45;;
41677;SDS011;27364;49.026;8.712;2022-12-18T08:44:39;48.63;;;27.48;;
41677;SDS011;27364;49.026;8.712;2022-12-18T08:47:06;48.00;;;26.75;;
41677;SDS011;27364;49.026;8.712;2022-12-18T08:49:32;49.47;;;26.45;;
41677;SDS011;27364;49.026;8.712;2022-12-18T08:51:58;48.90;;;27.00;;
41677;SDS011;27364;49.026;8.712;2022-12-18T08:54:23;50.47;;;27.77;;
41677;SDS011;27364;49.026;8.712;2022-12-18T08:56:50;50.08;;;27.55;;
41677;SDS011;27364;49.026;8.712;2022-12-18T08:59:16;50.92;;;27.23;;
41677;SDS011;27364;49.026;8.712;2022-12-18T09:01:42;52.60;;;27.38;;
41677;SDS011;27364;49.026;8.712;2022-12-18T09:04:11;54.60;;;29.67;;
41677;SDS011;27364;49.026;8.712;2022-12-18T09:06:37;52.10;;;26.40;;
41677;SDS011;27364;49.026;8.712;2022-12-18T09:09:04;48.58;;;28.10;;
41677;SDS011;27364;49.026;8.712;2022-12-18T09:11:30;52.88;;;27.92;;
41677;SDS011;27364;49.026;8.712;2022-12-18T09:13:56;56.67;;;31.05;;
41677;SDS011;27364;49.026;8.712;2022-12-18T09:16:23;51.70;;;30.00;;
41677;SDS011;27364;49.026;8.712;2022-12-18T09:18:50;51.58;;;28.35;;
41677;SDS011;27364;49.026;8.712;2022-12-18T09:21:16;51.72;;;28.00;;
41677;SDS011;27364;49.026;8.712;2022-12-18T09:23:44;54.35;;;31.50;;
41677;SDS011;27364;49.026;8.712;2022-12-18T09:26:18;51.55;;;29.05;;
41677;SDS011;27364;49.026;8.712;2022-12-18T09:28:44;52.83;;;30.38;;
41677;SDS011;27364;49.026;8.712;2022-12-18T09:31:10;49.05;;;27.70;;
41677;SDS011;27364;49.026;8.712;2022-12-18T09:33:37;57.30;;;32.53;;
41677;SDS011;27364;49.026;8.712;2022-12-18T09:36:03;47.28;;;28.30;;
41677;SDS011;27364;49.026;8.712;2022-12-18T09:38:30;51.38;;;28.60;;
41677;SDS011;27364;49.026;8.712;2022-12-18T09:41:03;53.53;;;30.92;;
41677;SDS011;27364;49.026;8.712;2022-12-18T09:46:11;54.65;;;32.95;;
41677;SDS011;27364;49.026;8.712;2022-12-18T09:48:54;56.38;;;32.33;;
41677;SDS011;27364;49.026;8.712;2022-12-18T09:51:26;52.72;;;31.25;;
41677;SDS011;27364;49.026;8.712;2022-12-18T09:54:07;52.63;;;31.73;;
41677;SDS011;27364;49.026;8.712;2022-12-18T09:56:40;50.60;;;30.13;;
41677;SDS011;27364;49.026;8.712;2022-12-18T10:01:40;52.33;;;30.42;;
41677;SDS011;27364;49.026;8.712;2022-12-18T10:04:07;48.38;;;28.27;;
41677;SDS011;27364;49.026;8.712;2022-12-18T10:06:35;51.00;;;30.48;;
41677;SDS011;27364;49.026;8.712;2022-12-18T10:11:55;50.15;;;30.17;;
41677;SDS011;27364;49.026;8.712;2022-12-18T10:14:52;50.03;;;30.70;;
41677;SDS011;27364;49.026;8.712;2022-12-18T10:20:21;48.72;;;29.30;;
41677;SDS011;27364;49.026;8.712;2022-12-18T10:22:59;49.63;;;30.65;;
41677;SDS011;27364;49.026;8.712;2022-12-18T10:28:32;48.47;;;29.58;;
41677;SDS011;27364;49.026;8.712;2022-12-18T10:31:00;49.47;;;30.55;;
41677;SDS011;27364;49.026;8.712;2022-12-18T10:33:28;49.70;;;31.05;;
41677;SDS011;27364;49.026;8.712;2022-12-18T10:38:22;50.58;;;30.73;;
41677;SDS011;27364;49.026;8.712;2022-12-18T10:41:00;50.67;;;30.67;;
41677;SDS011;27364;49.026;8.712;2022-12-18T10:48:41;46.95;;;30.95;;
41677;SDS011;27364;49.026;8.712;2022-12-18T10:51:26;50.80;;;31.60;;
41677;SDS011;27364;49.026;8.712;2022-12-18T10:54:01;53.92;;;32.95;;
41677;SDS011;27364;49.026;8.712;2022-12-18T10:56:28;54.45;;;33.03;;
41677;SDS011;27364;49.026;8.712;2022-12-18T10:59:03;54.70;;;32.88;;
41677;SDS011;27364;49.026;8.712;2022-12-18T11:01:49;55.20;;;34.35;;
41677;SDS011;27364;49.026;8.712;2022-12-18T11:04:18;51.55;;;32.42;;
41677;SDS011;27364;49.026;8.712;2022-12-18T11:06:56;48.80;;;31.33;;
41677;SDS011;27364;49.026;8.712;2022-12-18T11:09:23;49.67;;;31.73;;
41677;SDS011;27364;49.026;8.712;2022-12-18T11:11:51;52.38;;;32.25;;
41677;SDS011;27364;49.026;8.712;2022-12-18T11:16:48;48.65;;;29.88;;
41677;SDS011;27364;49.026;8.712;2022-12-18T11:22:02;50.75;;;32.75;;
41677;SDS011;27364;49.026;8.712;2022-12-18T11:24:42;51.08;;;32.45;;
41677;SDS011;27364;49.026;8.712;2022-12-18T11:27:15;53.58;;;32.05;;
41677;SDS011;27364;49.026;8.712;2022-12-18T11:29:43;49.08;;;31.33;;
41677;SDS011;27364;49.026;8.712;2022-12-18T11:32:32;48.80;;;31.55;;
41677;SDS011;27364;49.026;8.712;2022-12-18T11:37:54;49.97;;;31.67;;
41677;SDS011;27364;49.026;8.712;2022-12-18T11:40:30;45.35;;;30.00;;
41677;SDS011;27364;49.026;8.712;2022-12-18T11:43:15;49.42;;;32.25;;
41677;SDS011;27364;49.026;8.712;2022-12-18T11:48:24;46.60;;;30.38;;
41677;SDS011;27364;49.026;8.712;2022-12-18T11:50:57;48.92;;;31.95;;
41677;SDS011;27364;49.026;8.712;2022-12-18T11:53:26;51.72;;;33.30;;
41677;SDS011;27364;49.026;8.712;2022-12-18T11:56:01;51.22;;;33.72;;
41677;SDS011;27364;49.026;8.712;2022-12-18T11:58:42;48.45;;;32.35;;
41677;SDS011;27364;49.026;8.712;2022-12-18T12:18:06;50.85;;;33.97;;
41677;SDS011;27364;49.026;8.712;2022-12-18T12:20:59;51.92;;;31.27;;
41677;SDS011;27364;49.026;8.712;2022-12-18T12:29:19;49.22;;;32.95;;
41677;SDS011;27364;49.026;8.712;2022-12-18T12:34:34;53.05;;;33.65;;
41677;SDS011;27364;49.026;8.712;2022-12-18T12:40:03;54.42;;;33.85;;
41677;SDS011;27364;49.026;8.712;2022-12-18T12:42:35;54.53;;;34.13;;
41677;SDS011;27364;49.026;8.712;2022-12-18T12:45:35;53.38;;;34.42;;
41677;SDS011;27364;49.026;8.712;2022-12-18T12:48:04;54.72;;;32.92;;
41677;SDS011;27364;49.026;8.712;2022-12-18T12:50:35;50.92;;;32.63;;
41677;SDS011;27364;49.026;8.712;2022-12-18T12:53:05;52.85;;;33.70;;
41677;SDS011;27364;49.026;8.712;2022-12-18T12:55:34;55.47;;;35.17;;
41677;SDS011;27364;49.026;8.712;2022-12-18T12:58:18;52.78;;;34.40;;
41677;SDS011;27364;49.026;8.712;2022-12-18T13:01:11;52.95;;;33.47;;
41677;SDS011;27364;49.026;8.712;2022-12-18T13:04:02;60.58;;;37.35;;
41677;SDS011;27364;49.026;8.712;2022-12-18T13:06:45;59.95;;;37.70;;
41677;SDS011;27364;49.026;8.712;2022-12-18T13:09:18;55.75;;;34.17;;
41677;SDS011;27364;49.026;8.712;2022-12-18T13:11:45;57.30;;;37.50;;
41677;SDS011;27364;49.026;8.712;2022-12-18T13:14:31;59.08;;;37.40;;
41677;SDS011;27364;49.026;8.712;2022-12-18T13:17:14;56.30;;;35.40;;
41677;SDS011;27364;49.026;8.712;2022-12-18T13:19:40;55.30;;;33.38;;
41677;SDS011;27364;49.026;8.712;2022-12-18T13:22:19;53.78;;;33.83;;
41677;SDS011;27364;49.026;8.712;2022-12-18T13:24:46;54.10;;;34.08;;
41677;SDS011;27364;49.026;8.712;2022-12-18T13:41:04;56.25;;;34.75;;
41677;SDS011;27364;49.026;8.712;2022-12-18T13:43:42;51.63;;;32.85;;
41677;SDS011;27364;49.026;8.712;2022-12-18T13:46:24;50.50;;;31.77;;
41677;SDS011;27364;49.026;8.712;2022-12-18T13:51:46;50.38;;;31.60;;
41677;SDS011;27364;49.026;8.712;2022-12-18T13:59:34;52.15;;;30.48;;
41677;SDS011;27364;49.026;8.712;2022-12-18T14:02:09;50.08;;;31.30;;
41677;SDS011;27364;49.026;8.712;2022-12-18T14:04:39;47.42;;;30.67;;
41677;SDS011;27364;49.026;8.712;2022-12-18T14:07:05;52.03;;;32.20;;
41677;SDS011;27364;49.026;8.712;2022-12-18T14:09:36;57.25;;;33.05;;
41677;SDS011;27364;49.026;8.712;2022-12-18T14:12:05;58.78;;;35.30;;
41677;SDS011;27364;49.026;8.712;2022-12-18T14:15:00;53.67;;;33.95;;
41677;SDS011;27364;49.026;8.712;2022-12-18T14:17:26;54.65;;;32.97;;
41677;SDS011;27364;49.026;8.712;2022-12-18T14:19:52;54.47;;;33.30;;
41677;SDS011;27364;49.026;8.712;2022-12-18T14:22:18;54.08;;;33.85;;
41677;SDS011;27364;49.026;8.712;2022-12-18T14:25:04;56.95;;;32.38;;
41677;SDS011;27364;49.026;8.712;2022-12-18T14:27:44;58.10;;;33.42;;
41677;SDS011;27364;49.026;8.712;2022-12-18T14:30:25;57.30;;;34.08;;
41677;SDS011;27364;49.026;8.712;2022-12-18T14:33:05;58.95;;;34.45;;
41677;SDS011;27364;49.026;8.712;2022-12-18T14:35:37;55.50;;;32.97;;
41677;SDS011;27364;49.026;8.712;2022-12-18T14:38:09;56.05;;;33.63;;
41677;SDS011;27364;49.026;8.712;2022-12-18T14:40:34;59.60;;;34.35;;
41677;SDS011;27364;49.026;8.712;2022-12-18T14:43:00;57.72;;;33.55;;
41677;SDS011;27364;49.026;8.712;2022-12-18T14:45:44;57.60;;;34.75;;
41677;SDS011;27364;49.026;8.712;2022-12-18T14:50:36;66.45;;;39.03;;
41677;SDS011;27364;49.026;8.712;2022-12-18T14:53:02;64.38;;;38.22;;
41677;SDS011;27364;49.026;8.712;2022-12-18T14:55:28;65.13;;;36.67;;
41677;SDS011;27364;49.026;8.712;2022-12-18T14:57:54;61.67;;;35.08;;
41677;SDS011;27364;49.026;8.712;2022-12-18T15:00:22;61.88;;;37.35;;
41677;SDS011;27364;49.026;8.712;2022-12-18T15:02:53;68.88;;;39.92;;
41677;SDS011;27364;49.026;8.712;2022-12-18T15:05:24;63.95;;;37.95;;
41677;SDS011;27364;49.026;8.712;2022-12-18T15:07:53;57.60;;;34.85;;
41677;SDS011;27364;49.026;8.712;2022-12-18T15:10:21;58.85;;;34.67;;
41677;SDS011;27364;49.026;8.712;2022-12-18T15:25:40;54.33;;;31.70;;
41677;SDS011;27364;49.026;8.712;2022-12-18T15:33:41;56.60;;;31.50;;
41677;SDS011;27364;49.026;8.712;2022-12-18T15:36:12;54.45;;;31.27;;
41677;SDS011;27364;49.026;8.712;2022-12-18T15:38:39;52.70;;;31.25;;
41677;SDS011;27364;49.026;8.712;2022-12-18T15:41:05;54.72;;;31.35;;
41677;SDS011;27364;49.026;8.712;2022-12-18T15:43:34;55.65;;;31.55;;
41677;SDS011;27364;49.026;8.712;2022-12-18T15:46:03;56.22;;;31.42;;
41677;SDS011;27364;49.026;8.712;2022-12-18T15:48:48;54.45;;;30.65;;
41677;SDS011;27364;49.026;8.712;2022-12-18T15:53:46;55.45;;;31.30;;
41677;SDS011;27364;49.026;8.712;2022-12-18T15:56:13;56.03;;;32.10;;
41677;SDS011;27364;49.026;8.712;2022-12-18T15:58:59;60.70;;;32.17;;
41677;SDS011;27364;49.026;8.712;2022-12-18T16:01:26;57.97;;;33.28;;
41677;SDS011;27364;49.026;8.712;2022-12-18T16:03:54;59.10;;;32.80;;
41677;SDS011;27364;49.026;8.712;2022-12-18T16:06:20;53.83;;;31.40;;
41677;SDS011;27364;49.026;8.712;2022-12-18T16:08:47;58.55;;;32.97;;
41677;SDS011;27364;49.026;8.712;2022-12-18T16:11:26;56.28;;;33.17;;
41677;SDS011;27364;49.026;8.712;2022-12-18T16:14:11;56.33;;;31.88;;
41677;SDS011;27364;49.026;8.712;2022-12-18T16:16:41;56.33;;;32.78;;
41677;SDS011;27364;49.026;8.712;2022-12-18T16:19:06;54.50;;;31.38;;
41677;SDS011;27364;49.026;8.712;2022-12-18T16:21:32;55.75;;;32.40;;
41677;SDS011;27364;49.026;8.712;2022-12-18T16:23:57;55.72;;;33.53;;
41677;SDS011;27364;49.026;8.712;2022-12-18T16:26:23;59.45;;;32.70;;
41677;SDS011;27364;49.026;8.712;2022-12-18T16:28:48;58.67;;;33.75;;
41677;SDS011;27364;49.026;8.712;2022-12-18T16:31:14;60.17;;;34.20;;
41677;SDS011;27364;49.026;8.712;2022-12-18T16:33:40;60.20;;;33.85;;
41677;SDS011;27364;49.026;8.712;2022-12-18T16:36:05;59.28;;;33.88;;
41677;SDS011;27364;49.026;8.712;2022-12-18T16:38:32;64.82;;;34.13;;
41677;SDS011;27364;49.026;8.712;2022-12-18T16:40:57;70.03;;;36.78;;
41677;SDS011;27364;49.026;8.712;2022-12-18T16:43:41;63.67;;;34.95;;